HST,Max TemperatureF,Mean TemperatureF,Min TemperatureF,Max Dew PointF,MeanDew PointF,Min DewpointF,Max Humidity, Mean Humidity, Min Humidity, Max Sea Level PressureIn, Mean Sea Level PressureIn, Min Sea Level PressureIn, Max VisibilityMiles, Mean VisibilityMiles, Min VisibilityMiles, Max Wind SpeedMPH, Mean Wind SpeedMPH, Max Gust SpeedMPH,PrecipitationIn, CloudCover, Events, WindDirDegrees
2012-12-1,82,73,64,70,65,56,90,75,60,30.08,30.04,29.96,10,10,10,15,6,20,T,5,,181
2012-12-2,80,75,70,70,67,62,93,79,64,30.06,29.99,29.89,10,9,6,15,4,18,T,6,,348
2012-12-3,85,76,66,72,69,63,93,77,61,30.02,29.97,29.91,10,10,7,18,6,22,T,4,,310
2012-12-4,85,76,67,71,67,62,93,77,61,30.07,30.01,29.96,10,10,9,20,7,23,0.00,2,,170
2012-12-5,82,75,67,70,66,62,87,76,65,30.13,30.07,30.02,10,10,10,13,5,18,0.00,3,,174
2012-12-6,83,76,68,66,63,60,84,68,51,30.06,30.00,29.93,10,10,10,17,8,22,0.00,4,,207
2012-12-7,82,74,65,67,64,59,84,68,51,30.01,29.96,29.93,10,10,10,12,6,14,T,5,Rain,242
2012-12-8,82,74,66,70,66,57,93,74,54,30.03,29.96,29.92,10,7,2,15,6,18,0.29,7,Rain,219
2012-12-9,77,72,67,70,67,63,93,84,74,30.04,29.99,29.92,10,9,2,14,4,17,0.12,7,Rain,216
2012-12-10,80,74,67,68,65,63,90,75,60,30.08,30.03,29.97,10,10,2,21,7,25,0.18,7,Rain,174
2012-12-11,79,73,67,65,63,59,93,75,56,30.13,30.09,30.03,10,10,3,13,6,15,T,6,Rain,234
2012-12-12,77,72,66,66,64,62,93,83,73,30.14,30.10,30.06,10,9,5,17,6,21,0.15,7,Rain,261
2012-12-13,78,72,65,68,64,60,87,78,68,30.19,30.14,30.09,10,9,2,14,5,19,0.24,6,Rain,260
2012-12-14,80,73,66,66,64,61,93,77,60,30.18,30.14,30.09,10,8,2,17,7,21,T,7,Rain,242
2012-12-15,80,72,63,65,63,58,93,71,49,30.20,30.15,30.08,10,8,2,16,7,18,0.41,7,Rain,213
2012-12-16,78,73,67,67,65,63,93,79,64,30.17,30.13,30.06,10,8,2,13,5,18,0.77,7,Rain,263
2012-12-17,80,73,66,66,64,61,93,74,54,30.17,30.12,30.06,10,8,2,13,6,20,0.66,7,Rain,258
2012-12-18,81,73,64,64,61,57,93,71,48,30.16,30.11,30.05,10,9,2,17,7,21,0.20,6,Rain,236
2012-12-19,77,70,63,68,64,54,90,72,54,30.09,30.03,30.00,10,6,1,18,6,22,1.33,7,Rain,111
2012-12-20,77,73,68,67,65,62,90,82,73,30.09,30.04,29.99,10,9,2,23,9,29,0.45,7,Rain,77
2012-12-21,76,71,65,64,63,60,93,77,60,30.10,30.06,30.01,10,9,2,18,5,23,0.42,7,Rain,253
2012-12-22,78,71,64,65,62,56,87,76,64,30.12,30.05,29.98,10,9,5,15,6,17,0.22,6,Rain,205
2012-12-23,79,72,65,66,63,59,93,74,54,30.07,30.02,29.94,10,10,7,17,8,22,0.02,6,Rain,186
2012-12-24,76,72,67,70,67,62,93,83,73,30.09,30.01,29.94,10,6,1,21,7,27,2.62,8,Rain,217
2012-12-25,76,72,67,67,66,64,90,80,69,30.10,30.06,30.01,10,8,1,15,7,19,1.73,7,Rain,227
2012-12-26,78,71,64,66,63,58,87,78,69,30.10,30.06,29.99,10,10,7,15,6,20,0.10,6,Rain,219
2012-12-27,76,71,65,65,63,60,87,78,68,30.08,30.02,29.96,10,10,4,14,6,17,0.16,7,Rain,209
2012-12-28,77,71,65,68,64,62,100,85,69,30.03,29.99,29.94,10,8,2,12,5,14,0.58,7,Rain,222
2012-12-29,79,71,63,67,64,58,93,76,58,30.04,30.00,29.94,10,9,5,14,7,18,0.03,4,Rain,183
2012-12-30,78,73,68,72,68,64,97,88,79,30.06,30.01,29.96,10,7,2,18,7,22,0.58,7,Rain,184
2012-12-31,81,74,66,69,66,61,90,74,58,30.10,30.05,29.99,10,8,2,16,6,22,0.12,5,Rain,187